Time;durP1;ratioP1;P1;durP2;ratioP2;P2;SDS_P1;SDS_P2;PMS_P1;PMS_P2;Temp;Humidity;BMP_temperature;BMP_pressure;BME280_temperature;BME280_humidity;BME280_pressure;Samples;Min_cycle;Max_cycle;Signal;HPM_P1;HPM_P2
2023/01/26 00:01:54;;;;;;;9.98;6.97;;;21.40;50.10;;;;;;5016466;28;20108;-69
2023/01/26 00:04:20;;;;;;;10.88;6.90;;;21.40;50.20;;;;;;5018759;28;20467;-69
2023/01/26 00:06:45;;;;;;;9.85;6.90;;;21.30;50.10;;;;;;5017920;28;20029;-69
2023/01/26 00:09:14;;;;;;;10.60;6.90;;;21.30;50.20;;;;;;5022493;28;20029;-68
2023/01/26 00:11:49;;;;;;;10.23;6.50;;;21.30;50.30;;;;;;5022762;28;20049;-69
2023/01/26 00:14:14;;;;;;;10.90;6.85;;;21.30;50.30;;;;;;5020539;28;20498;-70
2023/01/26 00:16:40;;;;;;;10.00;6.18;;;21.20;50.20;;;;;;5017661;28;20141;-69
2023/01/26 00:19:05;;;;;;;9.30;6.10;;;21.20;50.30;;;;;;5020115;28;20156;-69
2023/01/26 00:21:31;;;;;;;9.50;5.93;;;21.20;50.30;;;;;;5027124;28;20026;-70
2023/01/26 00:23:58;;;;;;;9.52;6.07;;;21.20;50.40;;;;;;5015649;28;20060;-69
2023/01/26 00:26:25;;;;;;;8.88;5.82;;;21.10;50.40;;;;;;5019891;28;20489;-69
2023/01/26 00:28:52;;;;;;;9.40;6.25;;;21.10;50.40;;;;;;5018503;28;20037;-69
2023/01/26 00:31:24;;;;;;;8.73;5.72;;;21.10;50.40;;;;;;5021985;28;20025;-69
2023/01/26 00:33:51;;;;;;;8.52;5.82;;;21.10;50.50;;;;;;5016477;28;20106;-69
2023/01/26 00:36:17;;;;;;;8.68;5.78;;;21.10;50.50;;;;;;5025305;28;20361;-70
2023/01/26 00:38:43;;;;;;;8.98;5.70;;;21.00;50.50;;;;;;5019940;28;20036;-69
2023/01/26 00:42:05;;;;;;;7.85;5.60;;;21.00;50.50;;;;;;5018665;28;20061;-70
2023/01/26 00:43:54;;;;;;;7.90;5.00;;;21.00;50.50;;;;;;5018313;28;20017;-69
2023/01/26 00:46:20;;;;;;;8.75;5.05;;;20.90;50.50;;;;;;5017871;28;20130;-69
2023/01/26 00:48:46;;;;;;;7.25;5.10;;;20.90;50.60;;;;;;5017497;28;20198;-69
2023/01/26 00:51:11;;;;;;;8.73;5.18;;;20.90;50.60;;;;;;5021383;28;20030;-69
2023/01/26 00:53:37;;;;;;;7.47;4.88;;;20.90;50.60;;;;;;5015578;28;20026;-69
2023/01/26 00:56:02;;;;;;;6.13;4.40;;;20.80;50.60;;;;;;5025776;28;20454;-70
2023/01/26 00:58:28;;;;;;;7.43;4.78;;;20.80;50.70;;;;;;5024605;28;20038;-69
2023/01/26 01:00:53;;;;;;;8.52;5.80;;;20.80;50.70;;;;;;5026863;28;20038;-70
2023/01/26 01:03:19;;;;;;;6.63;4.88;;;20.80;50.70;;;;;;5025377;28;20076;-69
2023/01/26 01:05:45;;;;;;;6.75;4.75;;;20.80;50.80;;;;;;5025200;28;20057;-69
2023/01/26 01:08:10;;;;;;;6.30;4.10;;;20.80;50.80;;;;;;5024499;28;20113;-69
2023/01/26 01:10:36;;;;;;;6.95;4.80;;;20.70;50.80;;;;;;5023687;28;20051;-69
2023/01/26 01:13:01;;;;;;;8.05;5.15;;;20.70;50.80;;;;;;5029207;28;20037;-69
2023/01/26 01:15:27;;;;;;;7.65;4.80;;;20.70;50.90;;;;;;5025418;28;20030;-69
2023/01/26 01:17:52;;;;;;;6.65;4.40;;;20.70;50.80;;;;;;5043126;28;20029;-69
2023/01/26 01:20:18;;;;;;;7.75;4.63;;;20.70;50.90;;;;;;5028608;28;20159;-69
2023/01/26 01:22:44;;;;;;;6.28;4.40;;;20.70;50.90;;;;;;5027064;28;20026;-69
2023/01/26 01:25:09;;;;;;;6.78;4.20;;;20.60;50.80;;;;;;5042044;28;20178;-69
2023/01/26 01:27:35;;;;;;;6.40;3.95;;;20.60;50.90;;;;;;5026101;28;20021;-69
2023/01/26 01:30:06;;;;;;;7.22;4.43;;;20.60;50.90;;;;;;5040921;28;20025;-68
2023/01/26 01:32:36;;;;;;;6.07;4.25;;;20.60;50.90;;;;;;5024531;28;20026;-69
2023/01/26 01:35:01;;;;;;;5.80;3.90;;;20.60;51.00;;;;;;5026210;28;20037;-69
2023/01/26 01:37:28;;;;;;;5.90;4.35;;;20.60;51.00;;;;;;5041811;28;20025;-69
2023/01/26 01:39:54;;;;;;;6.60;4.07;;;20.50;51.00;;;;;;5022652;28;20508;-70
2023/01/26 01:42:20;;;;;;;6.47;4.13;;;20.50;51.00;;;;;;5028180;28;20029;-69
2023/01/26 01:45:24;;;;;;;5.70;3.80;;;20.50;51.10;;;;;;5024396;28;20132;-69
2023/01/26 01:47:51;;;;;;;6.07;4.20;;;20.50;51.20;;;;;;5023989;28;20029;-69
2023/01/26 01:50:18;;;;;;;5.53;3.92;;;20.40;51.00;;;;;;5024267;28;20029;-69
2023/01/26 01:52:44;;;;;;;5.35;3.85;;;20.40;51.10;;;;;;5023863;28;20014;-68
2023/01/26 01:55:13;;;;;;;5.97;4.00;;;20.40;51.10;;;;;;5024241;28;20045;-69
2023/01/26 01:58:07;;;;;;;5.93;3.75;;;20.40;51.10;;;;;;5026341;28;20128;-69
2023/01/26 02:00:32;;;;;;;5.72;3.60;;;20.40;51.20;;;;;;5024347;28;20053;-69
2023/01/26 02:03:13;;;;;;;5.55;3.85;;;20.40;51.20;;;;;;5026335;28;20439;-69
2023/01/26 02:06:02;;;;;;;5.97;4.03;;;20.40;51.20;;;;;;5026831;28;20458;-69
2023/01/26 02:08:42;;;;;;;5.25;3.60;;;20.30;51.20;;;;;;5021243;28;20025;-69
2023/01/26 02:11:13;;;;;;;5.88;4.05;;;20.30;51.20;;;;;;5019335;28;20457;-69
2023/01/26 02:13:41;;;;;;;5.75;3.70;;;20.30;51.20;;;;;;5022415;28;20535;-69
2023/01/26 02:16:06;;;;;;;5.38;3.40;;;20.30;51.20;;;;;;5023728;28;20029;-69
2023/01/26 02:18:32;;;;;;;5.45;3.60;;;20.30;51.30;;;;;;5028007;28;20025;-70
2023/01/26 02:21:01;;;;;;;4.80;3.33;;;20.30;51.30;;;;;;5021185;28;20393;-69
2023/01/26 02:23:44;;;;;;;5.78;3.80;;;20.30;51.30;;;;;;5022461;28;20907;-69
2023/01/26 02:26:28;;;;;;;5.82;3.58;;;20.30;51.40;;;;;;5023603;28;20122;-68
2023/01/26 02:28:54;;;;;;;5.78;3.70;;;20.30;51.40;;;;;;5021232;28;20029;-69
2023/01/26 02:31:21;;;;;;;5.20;3.55;;;20.20;51.40;;;;;;5019532;28;20036;-69
2023/01/26 02:33:47;;;;;;;5.35;3.50;;;20.20;51.40;;;;;;5021816;28;20532;-69
2023/01/26 02:36:24;;;;;;;5.00;3.33;;;20.20;51.40;;;;;;5022204;28;20025;-69
2023/01/26 02:39:06;;;;;;;5.22;3.28;;;20.20;51.50;;;;;;5019536;28;20174;-68
2023/01/26 02:44:16;;;;;;;4.80;3.38;;;20.20;51.50;;;;;;5020204;28;20068;-69
2023/01/26 02:46:42;;;;;;;5.47;3.25;;;20.10;52.00;;;;;;5023118;28;20084;-69
2023/01/26 02:51:51;;;;;;;5.50;3.50;;;20.10;51.50;;;;;;5020590;28;20032;-69
2023/01/26 02:57:01;;;;;;;4.78;3.00;;;20.10;51.60;;;;;;5019549;28;20103;-70
2023/01/26 02:59:27;;;;;;;5.60;3.33;;;20.10;51.60;;;;;;5021099;28;20049;-69
2023/01/26 03:01:55;;;;;;;5.07;3.30;;;20.10;51.60;;;;;;5035609;28;20038;-70
2023/01/26 03:04:21;;;;;;;4.87;3.47;;;20.00;51.60;;;;;;5023530;28;20033;-69
2023/01/26 03:06:47;;;;;;;4.57;3.05;;;20.00;51.60;;;;;;5021206;28;20288;-68
2023/01/26 03:09:12;;;;;;;5.40;3.20;;;20.00;51.60;;;;;;5015361;28;20021;-69
2023/01/26 03:11:41;;;;;;;4.95;3.13;;;20.00;51.60;;;;;;5018030;28;20111;-69
2023/01/26 03:14:10;;;;;;;4.07;2.65;;;20.00;51.60;;;;;;5021118;28;20112;-69
2023/01/26 03:16:37;;;;;;;4.75;2.97;;;20.00;51.70;;;;;;5021882;28;20068;-69
2023/01/26 03:29:44;;;;;;;4.60;3.28;;;19.90;51.70;;;;;;5019406;28;20480;-69
2023/01/26 03:32:09;;;;;;;5.07;3.40;;;19.90;52.20;;;;;;5018897;28;20485;-69
2023/01/26 03:34:35;;;;;;;4.70;3.13;;;19.90;51.80;;;;;;5020925;28;20133;-70
2023/01/26 03:37:01;;;;;;;4.65;3.20;;;19.90;51.80;;;;;;5016473;28;20478;-69
2023/01/26 03:58:46;;;;;;;4.18;2.83;;;19.90;52.00;;;;;;5017776;28;20076;-69
2023/01/26 04:01:20;;;;;;;3.63;2.40;;;19.80;51.90;;;;;;5020153;28;20038;-68
2023/01/26 04:09:20;;;;;;;3.75;2.45;;;19.80;51.90;;;;;;5023763;28;20037;-70
2023/01/26 04:11:46;;;;;;;3.45;2.53;;;19.80;51.90;;;;;;5021448;28;20382;-69
2023/01/26 04:22:27;;;;;;;4.13;2.47;;;19.80;51.90;;;;;;5017942;28;20039;-68
2023/01/26 04:24:53;;;;;;;3.58;2.30;;;19.80;51.90;;;;;;5021809;28;20141;-69
2023/01/26 04:27:19;;;;;;;4.22;2.83;;;19.80;52.00;;;;;;5017102;28;20091;-68
2023/01/26 04:29:44;;;;;;;3.85;2.58;;;19.80;52.00;;;;;;5020952;28;20496;-69
2023/01/26 04:32:10;;;;;;;3.58;2.33;;;19.80;52.00;;;;;;5019944;28;20507;-69
2023/01/26 04:34:35;;;;;;;3.20;2.28;;;19.70;51.90;;;;;;5017477;28;20415;-69
2023/01/26 04:37:01;;;;;;;3.28;2.20;;;19.70;51.90;;;;;;5017801;28;20477;-69
2023/01/26 04:39:27;;;;;;;3.40;2.33;;;19.70;51.90;;;;;;5020408;28;20033;-68
2023/01/26 04:41:52;;;;;;;2.90;2.10;;;19.70;51.90;;;;;;5014738;28;20591;-69
2023/01/26 04:44:18;;;;;;;3.80;2.25;;;19.80;52.00;;;;;;5017863;28;20034;-69
2023/01/26 04:46:44;;;;;;;2.90;1.83;;;19.80;52.00;;;;;;5016433;28;20040;-69
2023/01/26 04:49:10;;;;;;;3.40;2.08;;;19.70;51.90;;;;;;5020043;28;20124;-68
2023/01/26 04:51:36;;;;;;;3.63;2.10;;;19.70;51.90;;;;;;5018477;28;20528;-69
2023/01/26 04:54:01;;;;;;;3.20;2.30;;;19.70;52.00;;;;;;5015434;28;20060;-69
2023/01/26 04:56:29;;;;;;;3.53;2.20;;;19.70;52.00;;;;;;5016050;28;20036;-69
2023/01/26 04:58:57;;;;;;;3.80;2.55;;;19.70;52.00;;;;;;5018860;28;20167;-69
2023/01/26 05:01:23;;;;;;;3.50;2.10;;;19.70;52.10;;;;;;5020163;28;20460;-69
2023/01/26 05:03:48;;;;;;;3.90;2.30;;;19.70;52.10;;;;;;5020156;28;20080;-68
2023/01/26 05:06:14;;;;;;;3.38;2.20;;;19.70;52.20;;;;;;5020136;28;20026;-68
2023/01/26 05:08:41;;;;;;;3.17;2.15;;;19.70;52.20;;;;;;5018489;28;20481;-68
2023/01/26 05:11:07;;;;;;;4.72;2.47;;;19.60;52.20;;;;;;5019634;28;20033;-69
2023/01/26 05:13:34;;;;;;;3.65;2.38;;;19.60;52.30;;;;;;5021366;28;20022;-69
2023/01/26 05:16:00;;;;;;;5.03;2.70;;;19.60;52.30;;;;;;5019500;28;20457;-68
2023/01/26 05:18:26;;;;;;;3.40;2.25;;;19.60;52.40;;;;;;5015095;28;20029;-69
2023/01/26 05:20:52;;;;;;;3.45;2.20;;;19.60;52.30;;;;;;5020814;28;20579;-70
2023/01/26 05:23:17;;;;;;;3.13;2.03;;;19.60;52.40;;;;;;5016005;28;20610;-69
2023/01/26 05:25:43;;;;;;;3.40;2.50;;;19.60;52.30;;;;;;5015988;28;20036;-69
2023/01/26 05:28:08;;;;;;;3.17;2.28;;;19.60;52.30;;;;;;5018927;28;20065;-68
2023/01/26 05:30:34;;;;;;;3.70;2.30;;;19.60;52.30;;;;;;5020376;28;20030;-69
2023/01/26 05:33:07;;;;;;;3.55;2.45;;;19.60;52.40;;;;;;5017306;28;20425;-69
2023/01/26 05:35:33;;;;;;;3.58;2.60;;;19.60;52.50;;;;;;5016359;28;20033;-68
2023/01/26 05:37:59;;;;;;;3.35;2.33;;;19.60;52.50;;;;;;5021039;28;20034;-68
2023/01/26 05:40:25;;;;;;;3.10;2.10;;;19.60;52.60;;;;;;5013900;28;20040;-69
2023/01/26 05:42:52;;;;;;;3.03;1.98;;;19.60;52.60;;;;;;5020975;28;20034;-70
2023/01/26 05:45:18;;;;;;;3.58;2.30;;;19.60;52.60;;;;;;5022904;28;20514;-68
2023/01/26 05:47:44;;;;;;;3.70;2.38;;;19.60;52.60;;;;;;5022673;28;20115;-69
2023/01/26 05:50:11;;;;;;;3.33;2.08;;;19.60;52.60;;;;;;5023936;28;20454;-69
2023/01/26 05:52:37;;;;;;;3.65;2.28;;;19.60;52.60;;;;;;5024818;28;20446;-69
2023/01/26 05:55:04;;;;;;;3.35;2.08;;;19.60;52.70;;;;;;5021520;28;20500;-69
2023/01/26 05:57:30;;;;;;;2.75;2.00;;;19.60;52.70;;;;;;5019932;28;20465;-69
2023/01/26 05:59:56;;;;;;;3.78;2.50;;;19.60;52.60;;;;;;5022523;28;20037;-70
2023/01/26 06:02:22;;;;;;;3.90;2.20;;;19.60;52.60;;;;;;5020765;28;20079;-69
2023/01/26 06:04:48;;;;;;;2.97;2.10;;;19.60;52.70;;;;;;5022530;28;20350;-69
2023/01/26 06:07:14;;;;;;;3.38;2.05;;;19.60;52.70;;;;;;5021272;28;20033;-69
2023/01/26 06:09:40;;;;;;;3.75;2.42;;;19.60;52.80;;;;;;5021205;28;20156;-69
2023/01/26 06:12:11;;;;;;;3.53;2.20;;;19.60;52.80;;;;;;5023384;28;20022;-70
2023/01/26 06:14:37;;;;;;;3.15;2.00;;;19.60;52.80;;;;;;5023516;28;20026;-70
2023/01/26 06:17:02;;;;;;;3.08;2.08;;;19.50;52.70;;;;;;5021236;28;20488;-68
2023/01/26 06:19:28;;;;;;;3.65;2.28;;;19.50;52.70;;;;;;5021540;28;20515;-69
2023/01/26 06:21:54;;;;;;;4.18;2.30;;;19.50;52.90;;;;;;5021020;28;20124;-68
2023/01/26 06:24:19;;;;;;;3.70;2.00;;;19.50;53.60;;;;;;5023920;28;20413;-69
2023/01/26 06:26:47;;;;;;;3.15;2.00;;;19.50;53.30;;;;;;5022287;28;20474;-69
2023/01/26 06:29:13;;;;;;;3.30;2.03;;;19.50;53.40;;;;;;5020577;28;20057;-69
2023/01/26 06:31:39;;;;;;;3.53;2.00;;;19.50;53.50;;;;;;5024757;28;20053;-69
2023/01/26 06:34:04;;;;;;;3.63;1.85;;;19.50;53.60;;;;;;5018961;28;20036;-68
2023/01/26 06:36:30;;;;;;;3.25;1.80;;;19.50;53.70;;;;;;5020931;28;20021;-69
2023/01/26 06:38:55;;;;;;;3.22;1.92;;;19.50;53.70;;;;;;5020953;28;20524;-69
2023/01/26 06:41:21;;;;;;;3.28;1.80;;;19.60;53.70;;;;;;5018935;28;20436;-71
2023/01/26 06:43:47;;;;;;;3.40;2.13;;;19.60;53.80;;;;;;5019599;28;20021;-69
2023/01/26 06:46:14;;;;;;;3.10;1.80;;;19.60;53.60;;;;;;5023163;28;20040;-69
2023/01/26 06:48:40;;;;;;;3.53;2.00;;;19.60;53.60;;;;;;5023667;28;20033;-69
2023/01/26 06:51:15;;;;;;;2.65;1.80;;;19.50;53.40;;;;;;5019390;28;20029;-69
2023/01/26 06:53:55;;;;;;;3.60;2.28;;;19.60;54.30;;;;;;5020728;28;20069;-67
2023/01/26 06:56:22;;;;;;;3.97;2.20;;;19.60;53.90;;;;;;5019486;28;20056;-69
2023/01/26 06:58:48;;;;;;;3.00;1.80;;;19.70;53.70;;;;;;5023354;28;20524;-68
2023/01/26 07:01:17;;;;;;;3.45;2.38;;;19.80;54.10;;;;;;5017576;28;20115;-70
2023/01/26 07:03:42;;;;;;;5.00;2.55;;;19.90;53.60;;;;;;5023507;28;20361;-72
2023/01/26 07:06:11;;;;;;;2.70;2.00;;;20.00;53.30;;;;;;5018461;28;20048;-69
2023/01/26 07:08:38;;;;;;;3.63;2.00;;;20.10;53.00;;;;;;5022493;28;20075;-69
2023/01/26 07:11:04;;;;;;;3.38;1.98;;;20.30;52.80;;;;;;5022556;28;20449;-68
2023/01/26 07:13:30;;;;;;;4.03;2.30;;;20.40;52.60;;;;;;5019096;28;20077;-72
2023/01/26 07:16:04;;;;;;;4.00;1.95;;;20.40;52.40;;;;;;5022155;28;20111;-71
2023/01/26 07:18:30;;;;;;;4.43;2.42;;;20.60;52.20;;;;;;5021313;28;20034;-70
2023/01/26 07:21:00;;;;;;;4.45;2.58;;;20.60;52.00;;;;;;5019929;28;20451;-69
2023/01/26 07:23:26;;;;;;;4.07;2.40;;;20.60;52.00;;;;;;5018598;28;20039;-70
2023/01/26 07:25:51;;;;;;;4.07;2.53;;;20.60;52.00;;;;;;5022485;28;20033;-68
2023/01/26 07:28:17;;;;;;;3.35;2.22;;;20.70;52.00;;;;;;5017233;28;20127;-68
2023/01/26 07:30:43;;;;;;;4.03;2.30;;;20.70;51.70;;;;;;5020606;28;20140;-68
2023/01/26 07:33:09;;;;;;;4.43;2.00;;;20.70;51.60;;;;;;5018296;28;20110;-68
2023/01/26 07:35:34;;;;;;;3.30;1.92;;;20.80;51.60;;;;;;5018141;28;20079;-69
2023/01/26 07:38:03;;;;;;;4.30;2.15;;;20.80;51.60;;;;;;5019384;28;20034;-71
2023/01/26 07:40:28;;;;;;;3.90;2.30;;;20.80;51.50;;;;;;5026548;28;20044;-70
2023/01/26 07:42:55;;;;;;;3.00;2.10;;;20.80;51.40;;;;;;5019137;28;20025;-69
2023/01/26 07:45:20;;;;;;;3.28;2.03;;;20.80;51.30;;;;;;5020334;28;20044;-70
2023/01/26 07:47:46;;;;;;;3.63;2.30;;;20.80;51.30;;;;;;5019094;28;20558;-68
2023/01/26 07:50:13;;;;;;;3.40;2.00;;;20.90;51.30;;;;;;5023508;28;20022;-69
2023/01/26 07:52:39;;;;;;;3.20;1.83;;;21.00;51.30;;;;;;5020699;28;20017;-69
2023/01/26 07:55:05;;;;;;;3.30;1.77;;;21.10;51.20;;;;;;5021172;28;20034;-68
2023/01/26 07:57:33;;;;;;;2.33;1.58;;;21.10;51.60;;;;;;5016998;28;20044;-69
2023/01/26 07:59:58;;;;;;;3.10;1.90;;;21.20;50.90;;;;;;5019917;28;20446;-72
2023/01/26 08:02:24;;;;;;;3.47;2.10;;;21.30;50.60;;;;;;5020409;28;20045;-71
2023/01/26 08:04:50;;;;;;;3.47;1.80;;;21.40;50.50;;;;;;5019015;28;20078;-69
2023/01/26 08:07:15;;;;;;;3.33;2.13;;;21.40;50.40;;;;;;5017450;28;20071;-69
2023/01/26 08:09:41;;;;;;;3.55;2.50;;;21.40;50.30;;;;;;5027877;28;20392;-69
2023/01/26 08:12:07;;;;;;;3.55;2.20;;;21.40;50.20;;;;;;5019211;28;20049;-70
2023/01/26 08:14:34;;;;;;;3.30;2.05;;;21.40;50.10;;;;;;5018761;28;20130;-69
2023/01/26 08:17:00;;;;;;;4.35;2.20;;;21.40;50.10;;;;;;5035149;28;20506;-68
2023/01/26 08:19:26;;;;;;;3.78;1.98;;;21.50;50.10;;;;;;5016307;28;20112;-70
2023/01/26 08:21:53;;;;;;;3.70;2.00;;;21.50;50.20;;;;;;5017207;28;20117;-71
2023/01/26 08:24:19;;;;;;;3.10;2.10;;;21.50;50.10;;;;;;5017693;28;20079;-74
2023/01/26 08:26:44;;;;;;;3.70;2.25;;;21.50;50.20;;;;;;5026283;28;20436;-72
2023/01/26 08:29:10;;;;;;;3.33;1.88;;;21.50;50.10;;;;;;5018961;28;20014;-72
2023/01/26 08:31:36;;;;;;;3.28;2.08;;;21.50;50.00;;;;;;5015590;28;20155;-69
2023/01/26 08:34:02;;;;;;;4.20;2.17;;;21.50;49.90;;;;;;5017073;28;20033;-68
2023/01/26 08:36:28;;;;;;;3.67;1.85;;;21.60;49.80;;;;;;5018208;28;20022;-71
2023/01/26 08:38:54;;;;;;;3.40;2.10;;;21.60;49.90;;;;;;5018598;28;20056;-69
2023/01/26 08:41:20;;;;;;;3.40;2.08;;;21.60;49.80;;;;;;5021719;28;20345;-68
2023/01/26 08:43:46;;;;;;;5.45;2.40;;;21.60;49.70;;;;;;5018952;28;20058;-69
2023/01/26 08:46:12;;;;;;;3.97;2.25;;;21.60;49.70;;;;;;5024417;28;20039;-70
2023/01/26 08:48:38;;;;;;;4.18;2.10;;;21.60;49.60;;;;;;5017306;28;20049;-68
2023/01/26 08:51:04;;;;;;;3.70;2.15;;;21.60;49.50;;;;;;5016238;28;20030;-68
2023/01/26 08:53:32;;;;;;;3.40;2.00;;;21.60;49.50;;;;;;5017544;28;20018;-68
2023/01/26 08:56:01;;;;;;;3.92;2.20;;;21.60;49.50;;;;;;5019140;28;20044;-68
2023/01/26 08:58:27;;;;;;;5.10;2.10;;;21.60;49.40;;;;;;5019818;28;20056;-69
2023/01/26 09:00:53;;;;;;;3.92;2.20;;;21.60;49.50;;;;;;5018123;28;20064;-69
2023/01/26 09:03:19;;;;;;;4.22;2.22;;;21.60;49.50;;;;;;5019604;28;20493;-69
2023/01/26 09:05:44;;;;;;;3.55;2.10;;;21.60;49.40;;;;;;5017694;28;20021;-69
2023/01/26 09:08:10;;;;;;;3.92;2.15;;;21.60;49.40;;;;;;5017426;28;20033;-68
2023/01/26 09:10:37;;;;;;;3.22;2.20;;;21.60;49.40;;;;;;5020565;28;20112;-68
2023/01/26 09:13:03;;;;;;;4.72;1.92;;;21.60;49.40;;;;;;5018275;28;20516;-68
2023/01/26 09:15:29;;;;;;;3.75;1.83;;;21.60;49.40;;;;;;5017542;28;20273;-68
2023/01/26 09:17:54;;;;;;;4.65;2.17;;;21.60;49.40;;;;;;5021924;28;20025;-69
2023/01/26 09:20:20;;;;;;;3.30;1.90;;;21.50;49.30;;;;;;5020520;28;20454;-69
2023/01/26 09:22:46;;;;;;;3.42;1.92;;;21.60;49.90;;;;;;5022098;28;20033;-68
2023/01/26 09:25:13;;;;;;;3.53;1.90;;;21.60;49.40;;;;;;5023414;28;20116;-70
2023/01/26 09:27:39;;;;;;;4.10;2.08;;;21.50;49.40;;;;;;5022813;28;20041;-69
2023/01/26 09:30:06;;;;;;;3.83;2.05;;;21.50;49.40;;;;;;5024885;28;20013;-68
2023/01/26 09:32:32;;;;;;;5.18;2.30;;;21.50;49.40;;;;;;5023225;28;20134;-68
2023/01/26 09:34:58;;;;;;;3.38;2.03;;;21.50;49.50;;;;;;5027225;28;20415;-69
2023/01/26 09:37:24;;;;;;;3.45;1.90;;;21.40;50.00;;;;;;5025708;28;20418;-69
2023/01/26 09:39:49;;;;;;;3.10;1.90;;;21.40;49.40;;;;;;5021093;28;20187;-68
2023/01/26 09:42:37;;;;;;;3.83;2.15;;;21.40;49.50;;;;;;5022396;28;20170;-69
2023/01/26 09:45:11;;;;;;;3.55;2.00;;;21.40;49.50;;;;;;5019962;28;20030;-68
2023/01/26 09:48:13;;;;;;;3.50;1.90;;;21.40;49.60;;;;;;5021292;28;20544;-69
2023/01/26 09:51:03;;;;;;;3.35;1.80;;;21.40;49.60;;;;;;5020581;28;20026;-69
2023/01/26 09:53:56;;;;;;;3.78;1.77;;;21.30;49.60;;;;;;5023598;28;20026;-68
2023/01/26 09:56:27;;;;;;;3.78;1.85;;;21.30;49.60;;;;;;5023030;28;20490;-69
2023/01/26 09:59:02;;;;;;;4.07;2.00;;;21.30;49.70;;;;;;5023634;28;20110;-69
2023/01/26 10:01:44;;;;;;;3.83;2.00;;;21.30;49.70;;;;;;5020414;28;20065;-69
2023/01/26 10:04:23;;;;;;;3.30;1.80;;;21.20;49.70;;;;;;5024104;28;20030;-68
2023/01/26 10:06:52;;;;;;;3.67;1.70;;;21.20;49.70;;;;;;5022730;28;20057;-69
2023/01/26 10:09:46;;;;;;;2.78;1.80;;;21.20;49.70;;;;;;5020491;28;20503;-68
2023/01/26 10:12:35;;;;;;;4.10;1.83;;;21.20;49.80;;;;;;5022995;28;20025;-69
2023/01/26 10:15:07;;;;;;;;;;;21.10;49.80;;;;;;5024538;28;20037;-68
2023/01/26 10:17:37;;;;;;;5.60;2.10;;;21.10;49.80;;;;;;5022190;28;20387;-68
2023/01/26 10:20:24;;;;;;;3.83;1.95;;;21.10;49.80;;;;;;5024184;28;20025;-68
2023/01/26 10:22:58;;;;;;;3.25;1.63;;;21.10;49.90;;;;;;5023804;28;20485;-68
2023/01/26 10:25:29;;;;;;;2.85;1.67;;;21.10;49.90;;;;;;5023356;28;20038;-68
2023/01/26 10:27:55;;;;;;;4.10;1.75;;;21.10;50.00;;;;;;5020427;28;20167;-71
2023/01/26 10:30:21;;;;;;;4.47;2.03;;;21.00;49.90;;;;;;5021514;28;20117;-69
2023/01/26 10:32:50;;;;;;;4.82;1.80;;;21.10;50.20;;;;;;5020670;28;20363;-70
2023/01/26 10:35:18;;;;;;;3.92;2.13;;;21.10;50.10;;;;;;5023047;28;20307;-69
2023/01/26 10:37:45;;;;;;;3.70;2.00;;;21.20;50.00;;;;;;5020629;28;20040;-68
2023/01/26 10:40:12;;;;;;;3.00;1.58;;;21.30;49.90;;;;;;5024856;28;20029;-69
2023/01/26 10:42:38;;;;;;;3.95;1.90;;;21.30;49.90;;;;;;5020757;28;20492;-69
2023/01/26 10:45:30;;;;;;;3.80;1.63;;;21.40;49.90;;;;;;5017047;28;20052;-68
2023/01/26 10:48:16;;;;;;;2.65;1.73;;;21.50;49.80;;;;;;5017921;28;20088;-71
2023/01/26 10:50:42;;;;;;;3.30;2.10;;;21.50;49.50;;;;;;5024387;28;20100;-70
2023/01/26 10:53:15;;;;;;;2.85;1.80;;;21.60;49.20;;;;;;5023302;28;20466;-70
2023/01/26 10:55:40;;;;;;;3.25;1.80;;;21.70;49.10;;;;;;5021863;28;20124;-74
2023/01/26 10:58:42;;;;;;;4.00;2.00;;;21.80;49.00;;;;;;5024021;28;20061;-69
2023/01/26 11:01:11;;;;;;;2.58;1.55;;;21.80;48.80;;;;;;5022067;28;20473;-69
2023/01/26 11:03:37;;;;;;;3.58;1.90;;;22.00;48.70;;;;;;5022661;28;20033;-69
2023/01/26 11:06:09;;;;;;;3.60;1.73;;;22.00;48.70;;;;;;5020281;28;20552;-69
2023/01/26 11:08:37;;;;;;;3.55;1.90;;;22.10;48.60;;;;;;5022464;28;20068;-70
2023/01/26 11:11:03;;;;;;;3.05;1.70;;;22.10;48.40;;;;;;5022789;28;20118;-72
2023/01/26 11:13:29;;;;;;;3.45;1.85;;;22.10;48.30;;;;;;5020710;28;20028;-69
2023/01/26 11:16:20;;;;;;;3.90;2.00;;;22.20;48.80;;;;;;5022874;28;20026;-70
2023/01/26 11:19:08;;;;;;;3.47;1.92;;;22.20;48.00;;;;;;5023769;28;20029;-71
2023/01/26 11:21:47;;;;;;;3.45;1.70;;;22.20;47.90;;;;;;5023595;28;20064;-71
2023/01/26 11:24:12;;;;;;;3.38;1.73;;;22.20;48.00;;;;;;5018302;28;20516;-70
2023/01/26 11:26:38;;;;;;;3.08;1.70;;;22.20;48.00;;;;;;5021433;28;20025;-70
2023/01/26 11:29:16;;;;;;;3.05;1.70;;;22.20;48.00;;;;;;5023098;28;20445;-69
2023/01/26 11:32:09;;;;;;;2.95;1.50;;;22.10;47.90;;;;;;5016226;28;20108;-69
2023/01/26 11:34:53;;;;;;;3.45;1.67;;;22.20;47.80;;;;;;5036361;28;20502;-68
2023/01/26 11:37:43;;;;;;;3.20;1.50;;;22.10;47.80;;;;;;5020092;28;20148;-68
2023/01/26 11:40:17;;;;;;;3.30;1.88;;;22.10;47.90;;;;;;5019447;28;20089;-67
2023/01/26 11:43:20;;;;;;;2.90;1.73;;;22.10;47.80;;;;;;5021825;28;20561;-68
2023/01/26 11:46:11;;;;;;;4.28;1.80;;;22.10;47.90;;;;;;5018370;28;20061;-70
2023/01/26 11:49:09;;;;;;;3.60;1.60;;;22.10;48.00;;;;;;5019444;28;20025;-71
2023/01/26 11:52:22;;;;;;;3.00;1.60;;;22.10;48.00;;;;;;5018407;28;20048;-69
2023/01/26 11:55:15;;;;;;;3.50;1.60;;;22.00;47.90;;;;;;5028821;28;20127;-70
2023/01/26 11:58:04;;;;;;;3.53;1.60;;;22.10;48.00;;;;;;5020145;28;20065;-70
2023/01/26 12:00:40;;;;;;;3.35;1.50;;;22.00;48.00;;;;;;5018340;28;20064;-70
2023/01/26 12:03:26;;;;;;;5.38;2.03;;;21.90;48.00;;;;;;5015625;28;20392;-71
2023/01/26 12:05:56;;;;;;;2.92;1.70;;;21.90;48.00;;;;;;5020532;28;20598;-70
2023/01/26 12:08:50;;;;;;;4.53;2.15;;;21.90;48.00;;;;;;5016666;28;20484;-70
2023/01/26 12:11:40;;;;;;;3.03;1.60;;;21.90;48.10;;;;;;5019028;28;20037;-70
2023/01/26 12:14:15;;;;;;;4.13;1.70;;;21.80;48.10;;;;;;5017916;28;20394;-70
2023/01/26 12:16:49;;;;;;;3.00;1.27;;;21.80;48.10;;;;;;5020391;28;20049;-70
2023/01/26 12:19:27;;;;;;;2.92;1.50;;;21.80;48.10;;;;;;5020840;28;20480;-70
2023/01/26 12:22:02;;;;;;;4.30;1.70;;;21.70;48.20;;;;;;5016362;28;20029;-70
2023/01/26 12:24:43;;;;;;;2.53;1.58;;;21.70;48.20;;;;;;5018057;28;20385;-70
2023/01/26 12:27:35;;;;;;;3.40;1.60;;;21.70;48.30;;;;;;5023170;28;20473;-70
2023/01/26 12:30:20;;;;;;;3.13;1.60;;;21.70;48.30;;;;;;5017687;28;20129;-70
2023/01/26 12:32:45;;;;;;;4.55;1.42;;;21.70;48.40;;;;;;5019889;28;20021;-70
2023/01/26 12:35:12;;;;;;;4.30;1.52;;;21.60;48.40;;;;;;5019736;28;20163;-70
2023/01/26 12:38:02;;;;;;;3.55;1.88;;;21.60;48.50;;;;;;5017579;28;20045;-70
2023/01/26 12:40:47;;;;;;;;;;;21.60;48.50;;;;;;5019408;28;20037;-72
2023/01/26 12:43:25;;;;;;;3.17;1.30;;;21.50;48.50;;;;;;5023727;28;19909;-71
2023/01/26 12:45:54;;;;;;;2.67;1.50;;;21.50;48.50;;;;;;5018859;28;20025;-70
2023/01/26 12:48:30;;;;;;;2.35;1.40;;;21.50;48.50;;;;;;5019804;28;20034;-70
2023/01/26 12:51:02;;;;;;;5.22;1.50;;;21.50;48.60;;;;;;5019739;28;20025;-71
2023/01/26 12:53:39;;;;;;;3.70;1.70;;;21.50;48.70;;;;;;5015842;28;20026;-68
2023/01/26 12:56:14;;;;;;;2.95;1.50;;;21.40;48.80;;;;;;5023056;28;20130;-69
2023/01/26 12:58:46;;;;;;;5.18;1.60;;;21.50;48.90;;;;;;5016054;28;20378;-68
2023/01/26 13:01:14;;;;;;;3.22;1.58;;;21.50;48.80;;;;;;5015145;28;20026;-68
2023/01/26 13:04:09;;;;;;;3.42;1.10;;;21.50;48.70;;;;;;5020444;28;20476;-72
2023/01/26 13:06:35;;;;;;;3.28;1.50;;;21.60;49.00;;;;;;5018188;28;20033;-69
2023/01/26 13:09:20;;;;;;;3.97;1.20;;;21.70;48.90;;;;;;5019597;28;20029;-70
2023/01/26 13:11:45;;;;;;;4.13;1.80;;;21.70;48.80;;;;;;5016722;28;20458;-70
2023/01/26 13:14:51;;;;;;;4.07;1.70;;;21.80;48.60;;;;;;5021359;28;20052;-71
2023/01/26 13:17:17;;;;;;;3.60;1.40;;;21.90;48.40;;;;;;5017439;28;20046;-71
2023/01/26 13:19:43;;;;;;;3.15;1.75;;;22.00;48.40;;;;;;5018816;28;20397;-70
2023/01/26 13:22:18;;;;;;;2.72;1.50;;;22.00;48.20;;;;;;5019828;28;20026;-69
2023/01/26 13:25:06;;;;;;;3.05;1.50;;;22.10;48.00;;;;;;5019615;28;20504;-72
2023/01/26 13:27:38;;;;;;;3.00;1.60;;;22.20;47.80;;;;;;5016571;28;20492;-67
2023/01/26 13:30:22;;;;;;;2.78;1.58;;;22.20;47.70;;;;;;5018490;28;20425;-69
2023/01/26 13:32:47;;;;;;;4.25;1.60;;;22.20;47.70;;;;;;5015924;28;20420;-69
2023/01/26 13:35:16;;;;;;;4.90;1.80;;;22.20;47.70;;;;;;5018410;28;20029;-68
2023/01/26 13:38:06;;;;;;;4.28;1.67;;;22.20;47.70;;;;;;5020864;28;20091;-70
2023/01/26 13:40:36;;;;;;;3.72;1.60;;;22.20;47.80;;;;;;5019787;28;20592;-71
2023/01/26 13:43:27;;;;;;;5.43;1.60;;;22.20;47.80;;;;;;5020119;28;20034;-69
2023/01/26 13:46:06;;;;;;;4.88;1.80;;;22.20;47.80;;;;;;5022721;28;20145;-69
2023/01/26 13:48:39;;;;;;;3.40;1.80;;;22.20;47.90;;;;;;5016466;28;20038;-69
2023/01/26 13:51:08;;;;;;;4.15;1.50;;;22.20;47.90;;;;;;5019455;28;20037;-69
2023/01/26 13:53:42;;;;;;;4.33;1.60;;;22.20;47.90;;;;;;5021315;28;20033;-73
2023/01/26 13:56:26;;;;;;;4.50;2.00;;;22.20;48.00;;;;;;5026897;28;20508;-73
2023/01/26 13:58:52;;;;;;;3.97;1.80;;;22.20;48.00;;;;;;5018901;28;20033;-71